createdAt,value
2017-07-06T00:00:55.126Z,3.73
2017-07-06T00:03:23.392Z,3.77
2017-07-06T00:05:51.624Z,3.80
2017-07-06T00:08:19.172Z,4.30
2017-07-06T00:10:46.650Z,4.27
2017-07-06T00:13:14.137Z,3.67
2017-07-06T00:15:42.392Z,4.13
2017-07-06T00:18:09.870Z,4.13
2017-07-06T00:20:37.378Z,3.83
2017-07-06T00:23:04.887Z,4.50
2017-07-06T00:25:32.390Z,4.30
2017-07-06T00:27:59.868Z,4.07
2017-07-06T00:30:27.346Z,4.07
2017-07-06T00:32:54.837Z,3.90
2017-07-06T00:35:22.317Z,3.93
2017-07-06T00:37:49.816Z,3.53
2017-07-06T00:40:17.292Z,3.27
2017-07-06T00:42:44.781Z,3.80
2017-07-06T00:45:12.253Z,3.90
2017-07-06T00:47:39.746Z,3.70
2017-07-06T00:50:07.235Z,4.40
2017-07-06T00:52:35.490Z,3.87
2017-07-06T00:55:02.986Z,3.33
2017-07-06T00:57:30.466Z,3.67
2017-07-06T00:59:57.982Z,4.13
2017-07-06T01:02:26.221Z,3.70
2017-07-06T01:04:53.722Z,3.70
2017-07-06T01:07:21.996Z,3.50
2017-07-06T01:09:50.248Z,3.37
2017-07-06T01:12:17.745Z,3.73
2017-07-06T01:14:45.983Z,3.37
2017-07-06T01:17:13.485Z,3.60
2017-07-06T01:19:40.966Z,3.80
2017-07-06T01:22:08.436Z,3.50
2017-07-06T01:24:35.937Z,3.60
2017-07-06T01:27:04.260Z,4.03
2017-07-06T01:29:31.737Z,4.40
2017-07-06T01:31:59.241Z,4.33
2017-07-06T01:34:27.485Z,3.80
2017-07-06T01:36:54.984Z,4.00
2017-07-06T01:39:22.453Z,4.30
2017-07-06T01:41:49.942Z,4.40
2017-07-06T01:44:17.451Z,4.57
2017-07-06T01:46:45.697Z,4.23
2017-07-06T01:49:13.197Z,4.40
2017-07-06T01:51:40.673Z,4.57
2017-07-06T01:54:08.158Z,4.53
2017-07-06T01:56:35.662Z,5.20
2017-07-06T01:59:03.905Z,4.90
2017-07-06T02:01:31.397Z,3.60
2017-07-06T02:03:58.886Z,4.40
2017-07-06T02:06:26.389Z,4.50
2017-07-06T02:08:53.906Z,4.43
2017-07-06T02:11:21.417Z,4.53
2017-07-06T02:13:49.655Z,4.03
2017-07-06T02:16:17.157Z,3.80
2017-07-06T02:18:45.398Z,3.83
2017-07-06T02:21:12.876Z,4.17
2017-07-06T02:23:40.374Z,4.20
2017-07-06T02:26:07.851Z,3.90
2017-07-06T02:28:35.324Z,4.60
2017-07-06T02:31:02.821Z,4.60
2017-07-06T02:33:31.068Z,4.20
2017-07-06T02:35:58.578Z,4.30
2017-07-06T02:38:26.057Z,4.30
2017-07-06T02:40:53.564Z,4.23
2017-07-06T02:43:21.809Z,4.87
2017-07-06T02:45:49.332Z,5.03
2017-07-06T02:48:16.836Z,4.87
2017-07-06T02:50:44.354Z,5.37
2017-07-06T02:53:11.865Z,4.03
2017-07-06T02:55:39.341Z,5.43
2017-07-06T02:58:07.585Z,5.87
2017-07-06T03:00:35.076Z,5.63
2017-07-06T03:03:03.348Z,5.60
2017-07-06T03:05:31.612Z,5.10
2017-07-06T03:07:59.104Z,4.70
2017-07-06T03:10:26.614Z,5.00
2017-07-06T03:12:54.096Z,4.47
2017-07-06T03:15:22.364Z,5.13
2017-07-06T03:17:49.832Z,4.40
2017-07-06T03:20:17.347Z,4.83
2017-07-06T03:22:44.830Z,4.73
2017-07-06T03:25:12.311Z,5.10
2017-07-06T03:27:40.573Z,4.93
2017-07-06T03:30:08.052Z,4.80
2017-07-06T03:32:35.561Z,5.20
2017-07-06T03:35:03.053Z,4.50
2017-07-06T03:37:31.301Z,4.40
2017-07-06T03:39:58.836Z,4.37
2017-07-06T03:42:26.312Z,4.80
2017-07-06T03:44:53.856Z,5.07
2017-07-06T03:47:21.345Z,4.40
2017-07-06T03:49:48.850Z,4.33
2017-07-06T03:52:16.333Z,4.50
2017-07-06T03:54:43.888Z,5.00
2017-07-06T03:57:11.360Z,4.63
2017-07-06T03:59:38.903Z,5.30
2017-07-06T04:02:06.405Z,4.70
2017-07-06T04:04:33.920Z,5.03
2017-07-06T04:07:01.439Z,5.43
2017-07-06T04:09:29.711Z,5.53
2017-07-06T04:11:57.186Z,5.27
2017-07-06T04:14:25.460Z,5.07
2017-07-06T04:16:53.702Z,5.90
2017-07-06T04:19:21.214Z,6.20
2017-07-06T04:21:48.732Z,5.30
2017-07-06T04:24:16.206Z,5.77
2017-07-06T04:26:44.448Z,5.30
2017-07-06T04:29:11.962Z,5.20
2017-07-06T04:31:39.489Z,4.43
2017-07-06T04:34:07.755Z,5.63
2017-07-06T04:36:35.237Z,5.80
2017-07-06T04:39:03.511Z,5.87
2017-07-06T04:41:31.753Z,5.27
2017-07-06T04:43:59.253Z,5.37
2017-07-06T04:46:27.524Z,5.63
2017-07-06T04:48:55.762Z,5.57
2017-07-06T04:51:23.254Z,6.07
2017-07-06T04:53:51.521Z,5.20
2017-07-06T04:56:19.026Z,5.30
2017-07-06T04:58:46.842Z,5.67
2017-07-06T05:01:14.321Z,5.63
2017-07-06T05:03:42.605Z,5.40
2017-07-06T05:06:10.105Z,5.33
2017-07-06T05:08:37.725Z,5.80
2017-07-06T05:11:05.221Z,5.40
2017-07-06T05:13:32.698Z,4.90
2017-07-06T05:16:00.192Z,5.23
2017-07-06T05:18:28.656Z,4.73
2017-07-06T05:20:56.907Z,4.83
2017-07-06T05:23:24.421Z,5.87
2017-07-06T05:25:51.917Z,5.50
2017-07-06T05:28:19.446Z,5.30
2017-07-06T05:30:46.937Z,4.80
2017-07-06T05:33:14.485Z,4.80
2017-07-06T05:35:41.985Z,4.77
2017-07-06T05:38:10.232Z,3.80
2017-07-06T05:40:37.739Z,4.33
2017-07-06T05:43:05.215Z,4.43
2017-07-06T05:45:32.701Z,4.80
2017-07-06T05:48:00.193Z,4.77
2017-07-06T05:50:28.473Z,5.30
2017-07-06T05:52:56.765Z,4.50
2017-07-06T05:55:24.271Z,3.53
2017-07-06T05:57:51.755Z,4.43
2017-07-06T06:00:19.260Z,3.90
2017-07-06T06:02:46.741Z,4.20
2017-07-06T06:05:14.260Z,4.40
2017-07-06T06:07:41.734Z,4.27
2017-07-06T06:10:09.237Z,3.83
2017-07-06T06:12:36.723Z,3.97
2017-07-06T06:15:05.003Z,4.00
2017-07-06T06:17:33.295Z,3.83
2017-07-06T06:20:00.738Z,4.27
2017-07-06T06:22:28.241Z,3.93
2017-07-06T06:24:55.747Z,3.73
2017-07-06T06:27:23.250Z,3.77
2017-07-06T06:29:50.872Z,3.50
2017-07-06T06:32:19.175Z,3.70
2017-07-06T06:34:46.657Z,3.10
2017-07-06T06:37:14.150Z,3.77
2017-07-06T06:39:41.634Z,3.90
2017-07-06T06:42:09.749Z,3.97
2017-07-06T06:44:37.227Z,3.93
2017-07-06T06:47:04.699Z,3.10
2017-07-06T06:49:32.993Z,3.67
2017-07-06T06:52:01.240Z,3.50
2017-07-06T06:54:28.759Z,3.50
2017-07-06T06:56:56.250Z,3.70
2017-07-06T06:59:23.744Z,3.67
2017-07-06T07:01:52.018Z,3.90
2017-07-06T07:04:20.281Z,3.10
2017-07-06T07:06:47.750Z,3.07
2017-07-06T07:09:16.013Z,3.43
2017-07-06T07:11:43.505Z,3.27
2017-07-06T07:14:10.985Z,3.47
2017-07-06T07:16:38.498Z,4.00
2017-07-06T07:19:06.766Z,3.60
2017-07-06T07:21:34.272Z,3.40
2017-07-06T07:24:01.771Z,2.97
2017-07-06T07:26:29.261Z,3.27
2017-07-06T07:28:56.749Z,3.20
2017-07-06T07:31:24.261Z,3.23
2017-07-06T07:33:52.532Z,3.50
2017-07-06T07:36:20.017Z,3.23
2017-07-06T07:38:47.511Z,3.10
2017-07-06T07:41:15.019Z,3.37
2017-07-06T07:43:43.257Z,3.23
2017-07-06T07:46:10.756Z,3.43
2017-07-06T07:48:39.068Z,2.90
2017-07-06T07:51:06.558Z,3.13
2017-07-06T07:53:34.037Z,3.30
2017-07-06T07:56:02.292Z,2.87
2017-07-06T07:58:29.793Z,3.30
2017-07-06T08:00:57.263Z,2.97
2017-07-06T08:03:24.754Z,3.40
2017-07-06T08:05:52.235Z,3.13
2017-07-06T08:08:19.740Z,3.03
2017-07-06T08:10:47.266Z,2.80
2017-07-06T08:13:14.706Z,2.57
2017-07-06T08:15:42.197Z,3.70
2017-07-06T08:18:09.698Z,3.23
2017-07-06T08:20:37.240Z,2.90
2017-07-06T08:23:04.725Z,3.30
2017-07-06T08:25:32.217Z,2.90
2017-07-06T08:28:00.456Z,2.50
2017-07-06T08:30:27.956Z,2.63
2017-07-06T08:32:56.212Z,2.80
2017-07-06T08:35:23.688Z,3.13
2017-07-06T08:37:51.195Z,3.10
2017-07-06T08:40:18.677Z,3.43
2017-07-06T08:42:46.174Z,3.13
2017-07-06T08:45:13.683Z,3.13
2017-07-06T08:47:41.185Z,3.30
2017-07-06T08:50:09.459Z,2.80
2017-07-06T08:52:37.704Z,2.67
2017-07-06T08:55:05.217Z,2.73
2017-07-06T08:57:32.685Z,2.97
2017-07-06T09:00:00.184Z,2.57
2017-07-06T09:02:27.653Z,2.33
2017-07-06T09:04:55.126Z,2.47
2017-07-06T09:07:23.397Z,2.70
2017-07-06T09:09:51.650Z,3.17
2017-07-06T09:12:19.181Z,2.17
2017-07-06T09:14:46.650Z,2.57
2017-07-06T09:17:14.189Z,3.20
2017-07-06T09:19:41.678Z,2.90
2017-07-06T09:22:09.188Z,2.77
2017-07-06T09:24:36.678Z,2.93
2017-07-06T09:27:04.158Z,2.27
2017-07-06T09:29:31.632Z,2.43
2017-07-06T09:31:59.138Z,2.87
2017-07-06T09:34:26.609Z,2.83
2017-07-06T09:36:54.155Z,2.70
2017-07-06T09:39:21.623Z,2.73
2017-07-06T09:41:49.118Z,2.40
2017-07-06T09:44:16.610Z,2.80
2017-07-06T09:46:44.091Z,2.47
2017-07-06T09:49:11.594Z,2.10
2017-07-06T09:51:39.077Z,2.30
2017-07-06T09:54:07.348Z,2.40
2017-07-06T09:56:35.586Z,2.50
2017-07-06T09:59:03.066Z,2.00
2017-07-06T10:01:30.562Z,2.10
2017-07-06T10:03:58.029Z,2.20
2017-07-06T10:06:25.525Z,2.60
2017-07-06T10:08:53.004Z,2.20
2017-07-06T10:11:21.281Z,2.00
2017-07-06T10:13:48.779Z,1.90
2017-07-06T10:16:16.289Z,2.20
2017-07-06T10:18:43.804Z,2.30
2017-07-06T10:21:11.272Z,2.33
2017-07-06T10:23:38.766Z,1.80
2017-07-06T10:26:07.053Z,2.00
2017-07-06T10:28:35.332Z,1.70
2017-07-06T10:31:03.784Z,2.13
2017-07-06T10:33:31.557Z,2.00
2017-07-06T10:35:59.073Z,2.53
2017-07-06T10:38:26.546Z,1.90
2017-07-06T10:40:54.053Z,1.87
2017-07-06T10:43:22.301Z,1.60
2017-07-06T10:45:49.789Z,2.00
2017-07-06T10:48:18.050Z,1.70
2017-07-06T10:50:45.561Z,1.90
2017-07-06T10:53:13.039Z,1.73
2017-07-06T10:55:40.530Z,2.10
2017-07-06T10:58:08.085Z,1.77
2017-07-06T11:00:35.578Z,2.27
2017-07-06T11:03:03.414Z,2.20
2017-07-06T11:05:30.885Z,2.37
2017-07-06T11:07:59.198Z,2.00
2017-07-06T11:10:26.946Z,2.03
2017-07-06T11:12:54.415Z,2.03
2017-07-06T11:15:21.913Z,2.20
2017-07-06T11:17:49.397Z,2.67
2017-07-06T11:20:17.657Z,2.30
2017-07-06T11:22:45.133Z,2.13
2017-07-06T11:38:16.450Z,2.93
2017-07-06T11:40:43.926Z,2.40
2017-07-06T11:43:12.194Z,2.43
2017-07-06T11:45:40.436Z,2.20
2017-07-06T11:48:07.939Z,2.20
2017-07-06T11:50:36.178Z,2.70
2017-07-06T11:53:03.652Z,2.33
2017-07-06T11:55:31.180Z,2.43
2017-07-06T11:57:58.658Z,2.43
2017-07-06T12:00:26.142Z,2.00
2017-07-06T12:02:54.505Z,2.40
2017-07-06T12:05:23.016Z,2.20
2017-07-06T12:07:51.292Z,2.97
2017-07-06T12:10:20.074Z,2.77
2017-07-06T12:12:48.900Z,2.53
2017-07-06T12:15:16.865Z,2.47
2017-07-06T12:17:44.697Z,2.43
2017-07-06T12:20:13.604Z,2.00
2017-07-06T12:22:41.089Z,2.60
2017-07-06T12:25:08.601Z,2.40
2017-07-06T12:27:36.476Z,2.83
2017-07-06T12:30:05.532Z,2.23
2017-07-06T12:32:33.029Z,2.20
2017-07-06T12:35:01.978Z,2.73
2017-07-06T12:37:30.101Z,2.67
2017-07-06T12:39:58.699Z,3.07
2017-07-06T12:42:26.217Z,2.70
2017-07-06T12:44:53.703Z,2.70
2017-07-06T12:47:22.397Z,2.27
2017-07-06T12:49:49.889Z,2.77
2017-07-06T12:52:17.904Z,2.80
2017-07-06T12:54:46.290Z,2.87
2017-07-06T12:57:15.099Z,2.70
2017-07-06T12:59:43.278Z,3.00
2017-07-06T13:02:10.779Z,3.17
2017-07-06T13:04:38.269Z,2.70
2017-07-06T13:07:06.517Z,2.90
2017-07-06T13:09:34.010Z,2.77
2017-07-06T13:12:02.239Z,2.80
2017-07-06T13:14:29.726Z,3.20
2017-07-06T13:16:57.214Z,3.10
2017-07-06T13:19:24.686Z,3.07
2017-07-06T13:21:52.202Z,2.60
2017-07-06T13:24:19.674Z,2.70
2017-07-06T13:26:47.934Z,3.20
2017-07-06T13:29:15.413Z,3.27
2017-07-06T13:31:43.649Z,2.90
2017-07-06T13:34:11.153Z,2.93
2017-07-06T13:36:39.418Z,3.23
2017-07-06T13:39:07.685Z,3.17
2017-07-06T13:41:35.920Z,2.17
2017-07-06T13:44:03.408Z,2.70
2017-07-06T13:46:30.892Z,2.77
2017-07-06T13:48:59.129Z,2.43
2017-07-06T13:51:26.621Z,2.80
2017-07-06T13:53:54.862Z,2.93
2017-07-06T13:56:22.389Z,2.77
2017-07-06T13:58:49.868Z,2.93
2017-07-06T14:01:17.398Z,3.70
2017-07-06T14:03:44.882Z,2.60
2017-07-06T14:06:12.358Z,3.03
2017-07-06T14:08:39.858Z,2.87
2017-07-06T14:11:08.097Z,3.00
2017-07-06T14:13:35.605Z,2.50
2017-07-06T14:16:03.075Z,2.50
2017-07-06T14:18:30.581Z,2.50
2017-07-06T14:20:58.077Z,2.83
2017-07-06T14:23:25.574Z,2.33
2017-07-06T14:25:53.060Z,2.57
2017-07-06T14:28:20.553Z,2.93
2017-07-06T14:30:48.034Z,2.07
2017-07-06T14:33:15.533Z,2.30
2017-07-06T14:35:43.009Z,2.20
2017-07-06T14:38:11.273Z,1.93
2017-07-06T14:40:38.757Z,1.57
2017-07-06T14:43:06.239Z,1.53
2017-07-06T14:45:33.738Z,1.50
2017-07-06T14:48:01.224Z,1.63
2017-07-06T14:50:29.501Z,1.70
2017-07-06T14:52:57.774Z,1.73
2017-07-06T14:55:26.012Z,1.60
2017-07-06T14:57:53.510Z,1.40
2017-07-06T15:00:21.752Z,1.70
2017-07-06T15:02:49.263Z,1.67
2017-07-06T15:05:16.749Z,2.33
2017-07-06T15:07:44.230Z,2.13
2017-07-06T15:10:11.730Z,2.67
2017-07-06T15:12:39.312Z,2.20
2017-07-06T15:15:06.801Z,1.93
2017-07-06T15:17:34.306Z,2.20
2017-07-06T15:20:01.784Z,2.27
2017-07-06T15:22:29.340Z,2.10
2017-07-06T15:24:56.820Z,2.73
2017-07-06T15:27:24.365Z,2.73
2017-07-06T15:29:51.845Z,2.13
2017-07-06T15:32:19.740Z,2.23
2017-07-06T15:34:47.994Z,2.03
2017-07-06T15:37:15.474Z,2.30
2017-07-06T15:39:43.744Z,2.10
2017-07-06T15:42:11.213Z,2.30
2017-07-06T15:44:39.485Z,2.43
2017-07-06T15:47:07.734Z,2.20
2017-07-06T15:49:35.216Z,1.90
2017-07-06T15:52:03.482Z,2.20
2017-07-06T15:54:30.953Z,1.90
2017-07-06T15:56:59.273Z,2.57
2017-07-06T15:59:26.740Z,2.30
2017-07-06T16:01:54.223Z,2.10
2017-07-06T16:04:21.722Z,1.77
2017-07-06T16:06:49.265Z,2.17
2017-07-06T16:09:17.541Z,2.23
2017-07-06T16:11:45.772Z,2.27
2017-07-06T16:14:13.261Z,1.90
2017-07-06T16:16:40.740Z,1.73
2017-07-06T16:19:09.001Z,2.13
2017-07-06T16:21:37.264Z,1.87
2017-07-06T16:24:04.780Z,1.97
2017-07-06T16:26:32.285Z,1.90
2017-07-06T16:28:59.790Z,1.93
2017-07-06T16:31:27.289Z,2.07
2017-07-06T16:33:54.758Z,1.80
2017-07-06T16:36:22.233Z,2.50
2017-07-06T16:38:50.499Z,2.30
2017-07-06T16:41:17.976Z,2.03
2017-07-06T16:43:46.242Z,2.10
2017-07-06T16:46:13.738Z,1.90
2017-07-06T16:48:41.225Z,1.87
2017-07-06T16:51:08.704Z,2.13
2017-07-06T16:53:36.201Z,2.23
2017-07-06T16:56:03.720Z,1.70
2017-07-06T16:58:31.205Z,2.00
2017-07-06T17:00:59.469Z,2.40
2017-07-06T17:03:26.968Z,2.27
2017-07-06T17:05:54.459Z,2.43
2017-07-06T17:08:21.973Z,2.37
2017-07-06T17:10:49.493Z,2.30
2017-07-06T17:13:16.982Z,2.13
2017-07-06T17:15:44.497Z,2.37
2017-07-06T17:18:12.757Z,2.10
2017-07-06T17:20:40.272Z,2.20
2017-07-06T17:23:07.756Z,2.73
2017-07-06T17:25:35.259Z,2.27
2017-07-06T17:28:02.736Z,2.40
2017-07-06T17:30:30.982Z,2.10
2017-07-06T17:32:58.464Z,2.20
2017-07-06T17:35:25.937Z,2.50
2017-07-06T17:37:54.204Z,2.47
2017-07-06T17:40:22.445Z,2.83
2017-07-06T17:42:49.975Z,2.40
2017-07-06T17:45:17.467Z,2.90
2017-07-06T17:47:44.954Z,3.30
2017-07-06T17:50:13.201Z,2.20
2017-07-06T17:52:40.721Z,2.33
2017-07-06T17:55:08.229Z,2.70
2017-07-06T17:57:35.706Z,3.07
2017-07-06T18:00:03.193Z,2.17
2017-07-06T18:02:30.694Z,2.50
2017-07-06T18:04:58.173Z,2.17
2017-07-06T18:07:25.662Z,2.33
2017-07-06T18:09:53.955Z,2.40
2017-07-06T18:12:21.460Z,2.00
2017-07-06T18:14:48.958Z,3.00
2017-07-06T18:17:17.197Z,2.70
2017-07-06T18:19:44.750Z,2.43
2017-07-06T18:22:12.246Z,2.37
2017-07-06T18:24:41.794Z,2.27
2017-07-06T18:27:09.350Z,2.53
2017-07-06T18:29:36.838Z,1.83
2017-07-06T18:32:04.369Z,2.47
2017-07-06T18:34:31.865Z,2.50
2017-07-06T18:36:59.398Z,2.70
2017-07-06T18:39:27.490Z,6.73
2017-07-06T18:41:54.980Z,3.20
2017-07-06T18:44:23.253Z,3.53
2017-07-06T18:46:51.488Z,2.50
2017-07-06T18:49:19.031Z,2.43
2017-07-06T18:51:46.521Z,3.00
2017-07-06T18:54:14.044Z,2.40
2017-07-06T18:56:41.525Z,2.60
2017-07-06T18:59:09.003Z,2.70
2017-07-06T19:01:36.505Z,2.30
2017-07-06T19:04:04.761Z,2.73
2017-07-06T19:06:32.242Z,2.80
2017-07-06T19:09:00.495Z,2.47
2017-07-06T19:11:27.971Z,2.10
2017-07-06T19:13:55.482Z,2.70
2017-07-06T19:16:23.734Z,3.00
2017-07-06T19:18:51.202Z,2.77
2017-07-06T19:21:18.714Z,2.90
2017-07-06T19:23:46.201Z,2.67
2017-07-06T19:26:13.707Z,2.63
2017-07-06T19:28:41.186Z,3.70
2017-07-06T19:31:08.711Z,3.27
2017-07-06T19:33:36.966Z,4.10
2017-07-06T19:36:04.517Z,3.00
2017-07-06T19:38:32.017Z,3.27
2017-07-06T19:41:00.277Z,3.03
2017-07-06T19:43:27.753Z,3.63
2017-07-06T19:45:56.497Z,3.30
2017-07-06T19:48:24.646Z,3.40
2017-07-06T19:50:52.136Z,3.30
2017-07-06T19:53:19.606Z,3.57
2017-07-06T19:55:47.878Z,3.67
2017-07-06T19:58:15.363Z,3.37
2017-07-06T20:00:44.945Z,3.10
2017-07-06T20:03:13.197Z,3.53
2017-07-06T20:05:40.812Z,3.83
2017-07-06T20:08:08.512Z,3.03
2017-07-06T20:10:37.842Z,3.50
2017-07-06T20:13:05.847Z,2.70
2017-07-06T20:15:33.817Z,3.03
2017-07-06T20:18:02.465Z,3.53
2017-07-06T20:20:30.588Z,3.63
2017-07-06T20:22:59.947Z,4.43
2017-07-06T20:25:27.417Z,4.13
2017-07-06T20:27:54.933Z,4.70
2017-07-06T20:30:22.421Z,4.70
2017-07-06T20:32:49.919Z,4.13
2017-07-06T20:35:17.413Z,4.33
2017-07-06T20:37:44.889Z,3.97
2017-07-06T20:40:12.392Z,3.93
2017-07-06T20:42:39.882Z,4.40
2017-07-06T20:45:07.380Z,3.70
2017-07-06T20:47:35.641Z,3.77
2017-07-06T20:50:03.114Z,3.60
2017-07-06T20:52:30.597Z,3.40
2017-07-06T20:54:58.076Z,3.50
2017-07-06T20:57:25.584Z,3.60
2017-07-06T20:59:53.084Z,3.40
2017-07-06T21:02:20.563Z,3.60
2017-07-06T21:04:48.065Z,3.50
2017-07-06T21:07:15.569Z,4.80
2017-07-06T21:09:43.059Z,3.67
2017-07-06T21:12:10.566Z,4.00
2017-07-06T21:14:38.027Z,3.80
2017-07-06T21:17:05.521Z,4.10
2017-07-06T21:19:33.065Z,4.00
2017-07-06T21:22:00.549Z,4.07
2017-07-06T21:24:28.040Z,3.70
2017-07-06T21:26:55.512Z,4.27
2017-07-06T21:29:23.046Z,4.00
2017-07-06T21:31:50.526Z,4.17
2017-07-06T21:34:18.020Z,4.57
2017-07-06T21:36:46.289Z,4.40
2017-07-06T21:39:13.768Z,4.50
2017-07-06T21:41:41.274Z,3.83
2017-07-06T21:44:08.750Z,4.43
2017-07-06T21:46:36.241Z,4.70
2017-07-06T21:49:04.479Z,4.70
2017-07-06T21:51:31.984Z,3.90
2017-07-06T21:54:00.045Z,4.40
2017-07-06T21:56:28.281Z,4.17
2017-07-06T21:58:55.781Z,4.00
2017-07-06T22:01:24.037Z,4.50
2017-07-06T22:03:52.319Z,3.90
2017-07-06T22:06:20.544Z,4.47
2017-07-06T22:08:48.026Z,4.57
2017-07-06T22:11:15.657Z,3.90
2017-07-06T22:13:43.140Z,4.53
2017-07-06T22:16:10.631Z,4.20
2017-07-06T22:18:38.870Z,4.50
2017-07-06T22:21:06.383Z,5.17
2017-07-06T22:23:33.895Z,4.73
2017-07-06T22:26:01.357Z,4.77
2017-07-06T22:28:28.854Z,4.43
2017-07-06T22:30:57.095Z,4.77
2017-07-06T22:33:24.598Z,4.70
2017-07-06T22:35:52.084Z,3.93
2017-07-06T22:38:19.557Z,4.90
2017-07-06T22:40:47.055Z,5.77
2017-07-06T22:43:15.321Z,5.13
2017-07-06T22:45:42.820Z,3.87
2017-07-06T22:48:10.304Z,4.50
2017-07-06T22:50:37.785Z,4.50
2017-07-06T22:53:05.284Z,4.20
2017-07-06T22:55:32.763Z,4.50
2017-07-06T22:58:00.233Z,4.90
2017-07-06T23:00:27.725Z,5.30
2017-07-06T23:02:55.438Z,4.90
2017-07-06T23:05:22.924Z,5.23
2017-07-06T23:07:50.404Z,5.40
2017-07-06T23:10:17.899Z,4.67
2017-07-06T23:12:45.392Z,5.10
2017-07-06T23:15:12.861Z,4.90
2017-07-06T23:17:40.377Z,5.17
2017-07-06T23:20:07.857Z,4.93
2017-07-06T23:22:35.348Z,5.57
2017-07-06T23:25:02.824Z,4.60
2017-07-06T23:27:31.084Z,4.77
2017-07-06T23:29:58.573Z,5.00
2017-07-06T23:32:26.070Z,5.57
2017-07-06T23:34:53.563Z,4.60
2017-07-06T23:37:21.036Z,5.60
2017-07-06T23:39:49.305Z,5.60
2017-07-06T23:42:17.543Z,5.47
2017-07-06T23:44:45.084Z,4.70
2017-07-06T23:47:12.645Z,5.00
2017-07-06T23:49:40.145Z,5.13
2017-07-06T23:52:07.633Z,5.97
2017-07-06T23:54:35.149Z,5.20
2017-07-06T23:57:02.679Z,5.00
2017-07-06T23:59:30.177Z,5.40
